Active alerts

Gallatin County, MT
  Details for Gallatin County, MT Winter Storm Warning
Gallatin County, MT
  Details for Gallatin County, MT Hydrologic Outlook

Thunder radar more information blitzortung!


Rain radar more information rain snow radar



Nearby METAR Reports

   
KNUQ - Mountain View, CA
Updated: Jun 20 2019 3:56 am
Clear  
Clear  
   Wind: SSE 4.6 mph
Wind: SSE 4.6 mph
Temperature: 60.8°F
Dew Point: 53.6°F
Humidity: 77%
Barometer: 29.88 inHg
Clouds: Clear
Visibility: 10 mi
Cloud details: Clear ft
KNUQ 201056Z 16004KT 10SM CLR 16/12 A2988 RMK AO2 SLP120 T01610117
KSFO - San Francisco, CA
Updated: Jun 20 2019 3:56 am
Few Clouds  
Few Clouds  
   Wind: South 8.1 mph
Wind: South 8.1 mph
Temperature: 57.2°F
Dew Point: 51.8°F
Humidity: 82%
Barometer: 29.88 inHg
Clouds: Few Clouds
Visibility: 10 mi
Cloud details: Few Clouds 600 ft,
Few Clouds 1300 ft
KSFO 201056Z 17007KT 10SM FEW006 FEW013 14/11 A2988 RMK AO2 SLP117 T01440111
KSJC - San Jose, CA
Updated: Jun 20 2019 3:53 am
Clear  
Clear  
   Wind: SSE 16.1 mph<br />Gust to 16.1 mph
Wind: SSE 16.1 mph
Gust to 16.1 mph
Temperature: 60.8°F
Dew Point: 55.4°F
Humidity: 83%
Barometer: 29.88 inHg
Clouds: Clear
Visibility: 10 mi
Cloud details: Clear ft
KSJC 201053Z AUTO 15014G18KT 10SM CLR 16/13 A2988 RMK AO2 SLP117 T01560133
KOAK - Oakland, CA
Updated: Jun 20 2019 3:53 am
Mostly Cloudy  
Mostly Cloudy  
   Wind: SW 15 mph
Wind: SW 15 mph
Temperature: 60.8°F
Dew Point: 53.6°F
Humidity: 77%
Barometer: 29.88 inHg
Clouds: Mostly Cloudy
Visibility: 10 mi
Cloud details: Mostly Cloudy 1900 ft,
Mostly Cloudy 2300 ft
KOAK 201053Z 23013KT 10SM BKN019 BKN023 16/12 A2988 RMK AO2 SLP118 T01610122
KMRY - Monterey, CA
Updated: Jun 20 2019 3:54 am
Mist, Overcast  
Mist, Overcast  
   Wind: Calm
Wind: Calm
Temperature: 55.4°F
Dew Point: 53.6°F
Humidity: 94%
Barometer: 29.94 inHg
Clouds: Overcast
Visibility: 4 mi
Cloud details: Overcast 800 ft
KMRY 201054Z AUTO 00000KT 4SM BR OVC008 13/12 A2994 RMK AO2 SLP148 T01330117
KWYS - West Yellowstone, MT
Updated: Jun 20 2019 4:30 am
Clear  
Clear  
   Wind: Calm
Wind: Calm
Temperature: 28.4°F
Dew Point: 28.4°F
Humidity: 100%
Barometer: 29.88 inHg
Clouds: Clear
Visibility: 10 mi
Cloud details: Clear ft
KWYS 201130Z AUTO 00000KT 10SM CLR M02/M02 A2988 RMK AO2
KDCA - Washington, DC
Updated: Jun 20 2019 4:22 am
Overcast  
Overcast  
   Wind: South 9.2 mph
Wind: South 9.2 mph
Temperature: 77°F
Dew Point: 73.4°F
Humidity: 89%
Barometer: 29.63 inHg
Clouds: Overcast
Visibility: 10 mi
Cloud details: Overcast 1200 ft
KDCA 201122Z 18008KT 10SM OVC012 25/23 A2963 RMK AO2 T02500228
KIAD - Washington Dulles, VA
Updated: Jun 20 2019 3:52 am
Overcast  
Overcast  
   Wind: South 4.6 mph
Wind: South 4.6 mph
Temperature: 73.4°F
Dew Point: 69.8°F
Humidity: 89%
Barometer: 29.62 inHg
Clouds: Overcast
Visibility: 10 mi
Cloud details: Mostly Cloudy 700 ft,
Mostly Cloudy 13000 ft,
Overcast 25000 ft
KIAD 201052Z 18004KT 10SM BKN007 BKN130 OVC250 23/21 A2962 RMK AO2 SLP025 T02280211 $
KMIA - Miami Beach, FL
Updated: Jun 20 2019 3:53 am
Few Clouds  
Few Clouds  
   Wind: SSE 4.6 mph
Wind: SSE 4.6 mph
Temperature: 82.4°F
Heat Index: 89.6°F
Dew Point: 75.2°F
Humidity: 79%
Barometer: 30.02 inHg
Clouds: Few Clouds
Visibility: 10 mi
Cloud details: Few Clouds 1800 ft,
Few Clouds 25000 ft
KMIA 201053Z 15004KT 10SM FEW018 FEW250 28/24 A3002 RMK AO2 SLP164 T02780239

Script developed by  Saratoga-weather.org Adapted for the template by  Weerstation Leuven

You find our weather info also at:

Weather Underground

Citizen Weather Observer Program (CWOP)

Equipment we use:

Weather-station
Ambient WS-1400-IP

Weather-program
Meteobridge

Weather-server
TP-LINK TL-MR3020

Ambient WS-1400-IP

Meteobridge

TP-LINK TL-MR3020